sensor_id;sensor_type;location;lat;lon;timestamp;pressure;altitude;pressure_sealevel;temperature;humidity
53011;BME280;42803;55.762;38.084;2022-09-02T00:01:41;98959.41;;;7.52;86.48
53011;BME280;42803;55.762;38.084;2022-09-02T00:04:12;98963.78;;;7.53;85.64
53011;BME280;42803;55.762;38.084;2022-09-02T00:06:44;98962.00;;;7.52;85.31
53011;BME280;42803;55.762;38.084;2022-09-02T00:09:16;98965.59;;;7.54;85.34
53011;BME280;42803;55.762;38.084;2022-09-02T00:11:47;98962.38;;;7.47;85.75
53011;BME280;42803;55.762;38.084;2022-09-02T00:14:19;98968.28;;;7.44;86.25
53011;BME280;42803;55.762;38.084;2022-09-02T00:16:48;98966.03;;;7.49;86.19
53011;BME280;42803;55.762;38.084;2022-09-02T00:19:20;98962.03;;;7.42;86.02
53011;BME280;42803;55.762;38.084;2022-09-02T00:21:53;98970.53;;;7.51;85.95
53011;BME280;42803;55.762;38.084;2022-09-02T00:24:23;98963.16;;;7.56;85.46
53011;BME280;42803;55.762;38.084;2022-09-02T00:26:53;98966.34;;;7.64;85.29
53011;BME280;42803;55.762;38.084;2022-09-02T00:29:23;98965.81;;;7.68;85.26
53011;BME280;42803;55.762;38.084;2022-09-02T00:31:53;98965.19;;;7.60;84.69
53011;BME280;42803;55.762;38.084;2022-09-02T00:34:22;98960.13;;;7.62;83.63
53011;BME280;42803;55.762;38.084;2022-09-02T00:36:53;98961.09;;;7.52;83.97
53011;BME280;42803;55.762;38.084;2022-09-02T00:39:22;98955.66;;;7.49;83.75
53011;BME280;42803;55.762;38.084;2022-09-02T00:41:52;98957.81;;;7.54;84.26
53011;BME280;42803;55.762;38.084;2022-09-02T00:44:21;98962.97;;;7.65;83.50
53011;BME280;42803;55.762;38.084;2022-09-02T00:46:50;98954.31;;;7.54;82.83
53011;BME280;42803;55.762;38.084;2022-09-02T00:49:22;98957.41;;;7.60;83.13
53011;BME280;42803;55.762;38.084;2022-09-02T00:51:58;98954.03;;;7.61;83.54
53011;BME280;42803;55.762;38.084;2022-09-02T00:54:33;98961.38;;;7.67;83.08
53011;BME280;42803;55.762;38.084;2022-09-02T00:57:07;98958.16;;;7.59;82.71
53011;BME280;42803;55.762;38.084;2022-09-02T00:59:43;98962.91;;;7.53;82.64
53011;BME280;42803;55.762;38.084;2022-09-02T01:02:14;98973.09;;;7.62;83.09
53011;BME280;42803;55.762;38.084;2022-09-02T01:04:43;98966.66;;;7.56;82.97
53011;BME280;42803;55.762;38.084;2022-09-02T01:07:15;98975.44;;;7.58;83.66
53011;BME280;42803;55.762;38.084;2022-09-02T01:09:45;98960.66;;;7.57;83.84
53011;BME280;42803;55.762;38.084;2022-09-02T01:12:15;98959.38;;;7.74;83.42
53011;BME280;42803;55.762;38.084;2022-09-02T01:14:44;98967.72;;;7.70;83.24
53011;BME280;42803;55.762;38.084;2022-09-02T01:17:13;98966.41;;;7.75;83.71
53011;BME280;42803;55.762;38.084;2022-09-02T01:19:47;98960.97;;;7.72;83.44
53011;BME280;42803;55.762;38.084;2022-09-02T01:22:21;98962.25;;;7.55;83.29
53011;BME280;42803;55.762;38.084;2022-09-02T01:24:52;98962.53;;;7.48;84.27
53011;BME280;42803;55.762;38.084;2022-09-02T01:27:22;98963.44;;;7.49;84.58
53011;BME280;42803;55.762;38.084;2022-09-02T01:29:54;98961.75;;;7.49;83.79
53011;BME280;42803;55.762;38.084;2022-09-02T01:32:26;98968.94;;;7.64;84.18
53011;BME280;42803;55.762;38.084;2022-09-02T01:34:55;98972.09;;;7.60;84.33
53011;BME280;42803;55.762;38.084;2022-09-02T01:37:28;98967.00;;;7.61;84.16
53011;BME280;42803;55.762;38.084;2022-09-02T01:39:58;98971.28;;;7.61;83.61
53011;BME280;42803;55.762;38.084;2022-09-02T01:42:29;98964.59;;;7.52;83.76
53011;BME280;42803;55.762;38.084;2022-09-02T01:44:58;98970.06;;;7.45;83.74
53011;BME280;42803;55.762;38.084;2022-09-02T01:47:29;98978.88;;;7.47;84.28
53011;BME280;42803;55.762;38.084;2022-09-02T01:49:59;98979.13;;;7.50;83.88
53011;BME280;42803;55.762;38.084;2022-09-02T01:52:31;98971.09;;;7.47;83.56
53011;BME280;42803;55.762;38.084;2022-09-02T01:55:01;98970.44;;;7.50;83.67
53011;BME280;42803;55.762;38.084;2022-09-02T01:57:30;98970.66;;;7.63;83.51
53011;BME280;42803;55.762;38.084;2022-09-02T02:00:00;98981.25;;;7.66;83.60
53011;BME280;42803;55.762;38.084;2022-09-02T02:02:38;98983.25;;;7.58;83.51
53011;BME280;42803;55.762;38.084;2022-09-02T02:05:11;98981.06;;;7.53;82.61
53011;BME280;42803;55.762;38.084;2022-09-02T02:07:46;98984.59;;;7.43;81.90
53011;BME280;42803;55.762;38.084;2022-09-02T02:10:18;98980.09;;;7.41;81.47
53011;BME280;42803;55.762;38.084;2022-09-02T02:12:48;98986.44;;;7.44;81.04
53011;BME280;42803;55.762;38.084;2022-09-02T02:15:22;98985.66;;;7.45;80.67
53011;BME280;42803;55.762;38.084;2022-09-02T02:17:50;98992.41;;;7.43;81.51
53011;BME280;42803;55.762;38.084;2022-09-02T02:20:20;98993.34;;;7.33;81.19
53011;BME280;42803;55.762;38.084;2022-09-02T02:22:50;99002.06;;;7.34;81.27
53011;BME280;42803;55.762;38.084;2022-09-02T02:25:20;99001.44;;;7.26;81.13
53011;BME280;42803;55.762;38.084;2022-09-02T02:27:52;99010.38;;;7.30;79.64
53011;BME280;42803;55.762;38.084;2022-09-02T02:30:23;98999.31;;;7.32;78.83
53011;BME280;42803;55.762;38.084;2022-09-02T02:32:52;99004.09;;;7.38;78.31
53011;BME280;42803;55.762;38.084;2022-09-02T02:35:22;98996.84;;;7.34;78.51
53011;BME280;42803;55.762;38.084;2022-09-02T02:37:53;98993.22;;;7.32;78.84
53011;BME280;42803;55.762;38.084;2022-09-02T02:40:23;99007.53;;;7.27;77.83
53011;BME280;42803;55.762;38.084;2022-09-02T02:42:53;99007.78;;;7.30;78.36
53011;BME280;42803;55.762;38.084;2022-09-02T02:45:24;99005.81;;;7.38;78.38
53011;BME280;42803;55.762;38.084;2022-09-02T02:47:53;99007.50;;;7.37;78.17
53011;BME280;42803;55.762;38.084;2022-09-02T02:50:24;99001.78;;;7.31;78.25
53011;BME280;42803;55.762;38.084;2022-09-02T02:52:55;99004.91;;;7.27;78.57
53011;BME280;42803;55.762;38.084;2022-09-02T02:55:25;99013.50;;;7.26;79.11
53011;BME280;42803;55.762;38.084;2022-09-02T02:57:56;99014.50;;;7.28;79.32
53011;BME280;42803;55.762;38.084;2022-09-02T03:00:28;99019.34;;;7.23;78.84
53011;BME280;42803;55.762;38.084;2022-09-02T03:02:59;99004.03;;;7.26;79.15
53011;BME280;42803;55.762;38.084;2022-09-02T03:05:28;99017.88;;;7.37;78.61
53011;BME280;42803;55.762;38.084;2022-09-02T03:07:59;99018.00;;;7.39;77.65
53011;BME280;42803;55.762;38.084;2022-09-02T03:10:32;99028.09;;;7.46;77.72
53011;BME280;42803;55.762;38.084;2022-09-02T03:13:02;99025.13;;;7.41;77.74
53011;BME280;42803;55.762;38.084;2022-09-02T03:15:32;99035.38;;;7.40;78.07
53011;BME280;42803;55.762;38.084;2022-09-02T03:18:02;99035.78;;;7.44;78.04
53011;BME280;42803;55.762;38.084;2022-09-02T03:20:32;99030.88;;;7.37;77.39
53011;BME280;42803;55.762;38.084;2022-09-02T03:23:05;99033.47;;;7.37;77.34
53011;BME280;42803;55.762;38.084;2022-09-02T03:25:35;99037.59;;;7.45;77.54
53011;BME280;42803;55.762;38.084;2022-09-02T03:28:15;99032.22;;;7.54;77.35
53011;BME280;42803;55.762;38.084;2022-09-02T03:30:45;99028.00;;;7.66;77.39
53011;BME280;42803;55.762;38.084;2022-09-02T03:33:16;99032.75;;;7.82;77.00
53011;BME280;42803;55.762;38.084;2022-09-02T03:35:46;99032.50;;;8.01;76.44
53011;BME280;42803;55.762;38.084;2022-09-02T03:38:17;99029.63;;;8.30;76.09
53011;BME280;42803;55.762;38.084;2022-09-02T03:40:46;99027.75;;;8.39;75.25
53011;BME280;42803;55.762;38.084;2022-09-02T03:43:15;99031.00;;;8.37;74.87
53011;BME280;42803;55.762;38.084;2022-09-02T03:45:44;99034.00;;;8.31;74.49
53011;BME280;42803;55.762;38.084;2022-09-02T03:48:14;99029.13;;;8.46;75.01
53011;BME280;42803;55.762;38.084;2022-09-02T03:50:44;99034.06;;;8.65;75.34
53011;BME280;42803;55.762;38.084;2022-09-02T03:53:20;99036.44;;;8.62;74.84
53011;BME280;42803;55.762;38.084;2022-09-02T03:55:55;99042.31;;;8.59;75.32
53011;BME280;42803;55.762;38.084;2022-09-02T03:58:27;99045.38;;;8.65;75.75
53011;BME280;42803;55.762;38.084;2022-09-02T04:00:58;99056.78;;;8.56;76.48
53011;BME280;42803;55.762;38.084;2022-09-02T04:03:27;99049.69;;;8.43;77.12
53011;BME280;42803;55.762;38.084;2022-09-02T04:05:57;99066.56;;;8.26;77.91
53011;BME280;42803;55.762;38.084;2022-09-02T04:08:29;99053.88;;;8.19;78.37
53011;BME280;42803;55.762;38.084;2022-09-02T04:11:04;99065.19;;;8.41;78.89
53011;BME280;42803;55.762;38.084;2022-09-02T04:13:34;99062.63;;;8.31;78.34
53011;BME280;42803;55.762;38.084;2022-09-02T04:16:08;99059.25;;;8.32;79.04
53011;BME280;42803;55.762;38.084;2022-09-02T04:18:38;99060.63;;;8.61;78.58
53011;BME280;42803;55.762;38.084;2022-09-02T04:21:10;99062.88;;;8.56;78.32
53011;BME280;42803;55.762;38.084;2022-09-02T04:23:40;99071.28;;;8.64;78.11
53011;BME280;42803;55.762;38.084;2022-09-02T04:26:12;99064.00;;;8.48;77.55
53011;BME280;42803;55.762;38.084;2022-09-02T04:28:42;99069.09;;;8.58;78.08
53011;BME280;42803;55.762;38.084;2022-09-02T04:31:14;99073.88;;;8.97;77.58
53011;BME280;42803;55.762;38.084;2022-09-02T04:33:43;99068.16;;;9.72;75.95
53011;BME280;42803;55.762;38.084;2022-09-02T04:36:17;99060.91;;;9.56;74.22
53011;BME280;42803;55.762;38.084;2022-09-02T04:38:50;99072.13;;;9.20;74.91
53011;BME280;42803;55.762;38.084;2022-09-02T04:41:25;99072.47;;;8.79;75.78
53011;BME280;42803;55.762;38.084;2022-09-02T04:43:58;99075.25;;;8.59;76.66
53011;BME280;42803;55.762;38.084;2022-09-02T04:46:31;99069.84;;;8.45;76.81
53011;BME280;42803;55.762;38.084;2022-09-02T04:49:04;99083.00;;;8.37;77.37
53011;BME280;42803;55.762;38.084;2022-09-02T04:51:33;99073.75;;;8.18;78.08
53011;BME280;42803;55.762;38.084;2022-09-02T04:54:06;99079.06;;;7.98;79.13
53011;BME280;42803;55.762;38.084;2022-09-02T04:56:37;99075.75;;;8.11;79.46
53011;BME280;42803;55.762;38.084;2022-09-02T04:59:07;99090.84;;;8.04;78.64
53011;BME280;42803;55.762;38.084;2022-09-02T05:01:41;99094.91;;;8.23;78.49
53011;BME280;42803;55.762;38.084;2022-09-02T05:04:16;99095.84;;;8.45;77.97
53011;BME280;42803;55.762;38.084;2022-09-02T05:06:49;99092.56;;;8.70;77.17
53011;BME280;42803;55.762;38.084;2022-09-02T05:09:21;99097.88;;;8.93;76.46
53011;BME280;42803;55.762;38.084;2022-09-02T05:11:57;99095.69;;;8.88;75.89
53011;BME280;42803;55.762;38.084;2022-09-02T05:14:31;99097.38;;;8.87;75.80
53011;BME280;42803;55.762;38.084;2022-09-02T05:17:04;99087.59;;;9.07;75.06
53011;BME280;42803;55.762;38.084;2022-09-02T05:19:38;99099.06;;;9.32;74.95
53011;BME280;42803;55.762;38.084;2022-09-02T05:22:08;99095.09;;;9.37;74.98
53011;BME280;42803;55.762;38.084;2022-09-02T05:24:42;99101.34;;;9.39;75.22
53011;BME280;42803;55.762;38.084;2022-09-02T05:27:14;99104.41;;;9.00;74.86
53011;BME280;42803;55.762;38.084;2022-09-02T05:29:45;99109.81;;;8.79;75.96
53011;BME280;42803;55.762;38.084;2022-09-02T05:32:17;99107.25;;;8.69;76.59
53011;BME280;42803;55.762;38.084;2022-09-02T05:34:48;99118.41;;;8.78;76.79
53011;BME280;42803;55.762;38.084;2022-09-02T05:37:17;99119.34;;;8.91;76.91
53011;BME280;42803;55.762;38.084;2022-09-02T05:39:49;99110.69;;;9.14;76.71
53011;BME280;42803;55.762;38.084;2022-09-02T05:42:19;99123.06;;;9.28;76.05
53011;BME280;42803;55.762;38.084;2022-09-02T05:44:51;99120.47;;;9.28;75.47
53011;BME280;42803;55.762;38.084;2022-09-02T05:47:23;99121.78;;;9.11;75.45
53011;BME280;42803;55.762;38.084;2022-09-02T05:49:53;99121.03;;;9.24;75.50
53011;BME280;42803;55.762;38.084;2022-09-02T05:52:24;99132.56;;;9.16;75.73
53011;BME280;42803;55.762;38.084;2022-09-02T05:54:57;99132.16;;;9.45;75.38
53011;BME280;42803;55.762;38.084;2022-09-02T05:57:27;99131.72;;;9.86;74.16
53011;BME280;42803;55.762;38.084;2022-09-02T06:00:03;99111.25;;;10.76;71.86
53011;BME280;42803;55.762;38.084;2022-09-02T06:02:41;99127.47;;;10.71;71.50
53011;BME280;42803;55.762;38.084;2022-09-02T06:05:20;99127.31;;;10.57;70.96
53011;BME280;42803;55.762;38.084;2022-09-02T06:07:58;99132.16;;;10.27;71.93
53011;BME280;42803;55.762;38.084;2022-09-02T06:10:28;99119.25;;;10.05;72.83
53011;BME280;42803;55.762;38.084;2022-09-02T06:12:57;99135.56;;;9.91;73.63
53011;BME280;42803;55.762;38.084;2022-09-02T06:15:30;99136.47;;;9.56;73.46
53011;BME280;42803;55.762;38.084;2022-09-02T06:18:01;99142.66;;;9.35;74.20
53011;BME280;42803;55.762;38.084;2022-09-02T06:20:32;99129.84;;;9.26;74.72
53011;BME280;42803;55.762;38.084;2022-09-02T06:23:02;99151.16;;;9.32;74.86
53011;BME280;42803;55.762;38.084;2022-09-02T06:25:37;99149.25;;;9.41;74.75
53011;BME280;42803;55.762;38.084;2022-09-02T06:28:08;99129.44;;;9.43;73.45
53011;BME280;42803;55.762;38.084;2022-09-02T06:30:42;99157.06;;;9.53;73.27
53011;BME280;42803;55.762;38.084;2022-09-02T06:33:12;99160.25;;;9.84;72.57
53011;BME280;42803;55.762;38.084;2022-09-02T06:35:44;99160.06;;;9.81;72.65
53011;BME280;42803;55.762;38.084;2022-09-02T06:38:17;99174.00;;;9.70;72.18
53011;BME280;42803;55.762;38.084;2022-09-02T06:40:51;99165.16;;;9.80;72.31
53011;BME280;42803;55.762;38.084;2022-09-02T06:43:36;99180.69;;;9.90;71.79
53011;BME280;42803;55.762;38.084;2022-09-02T06:46:27;99170.44;;;10.52;71.57
53011;BME280;42803;55.762;38.084;2022-09-02T06:49:00;99183.88;;;10.33;70.58
53011;BME280;42803;55.762;38.084;2022-09-02T06:51:31;99182.63;;;10.28;70.89
53011;BME280;42803;55.762;38.084;2022-09-02T06:54:03;99181.59;;;9.90;71.33
53011;BME280;42803;55.762;38.084;2022-09-02T06:56:37;99198.03;;;9.89;71.88
53011;BME280;42803;55.762;38.084;2022-09-02T06:59:07;99194.13;;;9.61;72.09
53011;BME280;42803;55.762;38.084;2022-09-02T07:01:46;99208.75;;;9.59;72.24
53011;BME280;42803;55.762;38.084;2022-09-02T07:04:18;99205.59;;;9.63;72.09
53011;BME280;42803;55.762;38.084;2022-09-02T07:07:07;99199.75;;;10.00;72.11
53011;BME280;42803;55.762;38.084;2022-09-02T07:09:53;99216.94;;;9.87;71.35
53011;BME280;42803;55.762;38.084;2022-09-02T07:12:24;99196.09;;;10.22;70.94
53011;BME280;42803;55.762;38.084;2022-09-02T07:15:06;99210.63;;;10.30;70.31
53011;BME280;42803;55.762;38.084;2022-09-02T07:17:40;99222.63;;;9.93;70.49
53011;BME280;42803;55.762;38.084;2022-09-02T07:20:18;99214.34;;;9.87;71.52
53011;BME280;42803;55.762;38.084;2022-09-02T07:22:53;99217.28;;;9.91;71.24
53011;BME280;42803;55.762;38.084;2022-09-02T07:25:25;99206.50;;;9.63;71.10
53011;BME280;42803;55.762;38.084;2022-09-02T07:27:56;99229.13;;;9.52;70.64
53011;BME280;42803;55.762;38.084;2022-09-02T07:30:25;99219.81;;;9.44;70.82
53011;BME280;42803;55.762;38.084;2022-09-02T07:33:02;99227.50;;;9.31;71.50
53011;BME280;42803;55.762;38.084;2022-09-02T07:35:34;99229.31;;;9.32;71.97
53011;BME280;42803;55.762;38.084;2022-09-02T07:38:05;99232.28;;;9.48;72.26
53011;BME280;42803;55.762;38.084;2022-09-02T07:40:36;99249.38;;;9.90;71.71
53011;BME280;42803;55.762;38.084;2022-09-02T07:43:09;99228.75;;;10.17;69.92
53011;BME280;42803;55.762;38.084;2022-09-02T07:45:40;99227.81;;;10.75;68.97
53011;BME280;42803;55.762;38.084;2022-09-02T07:48:12;99215.63;;;10.99;67.37
53011;BME280;42803;55.762;38.084;2022-09-02T07:50:44;99238.91;;;10.96;67.07
53011;BME280;42803;55.762;38.084;2022-09-02T07:53:18;99238.13;;;11.10;66.56
53011;BME280;42803;55.762;38.084;2022-09-02T07:55:49;99240.66;;;11.09;66.09
53011;BME280;42803;55.762;38.084;2022-09-02T07:58:20;99225.34;;;11.02;65.97
53011;BME280;42803;55.762;38.084;2022-09-02T08:00:51;99228.25;;;10.81;66.21
53011;BME280;42803;55.762;38.084;2022-09-02T08:03:23;99240.34;;;11.29;65.81
53011;BME280;42803;55.762;38.084;2022-09-02T08:05:55;99243.09;;;11.31;65.49
53011;BME280;42803;55.762;38.084;2022-09-02T08:08:25;99239.06;;;11.11;65.91
53011;BME280;42803;55.762;38.084;2022-09-02T08:10:54;99249.97;;;10.57;67.47
53011;BME280;42803;55.762;38.084;2022-09-02T08:13:25;99255.31;;;10.11;69.73
53011;BME280;42803;55.762;38.084;2022-09-02T08:15:55;99252.28;;;9.71;71.04
53011;BME280;42803;55.762;38.084;2022-09-02T08:18:25;99264.06;;;9.33;72.46
53011;BME280;42803;55.762;38.084;2022-09-02T08:20:54;99264.81;;;9.20;73.84
53011;BME280;42803;55.762;38.084;2022-09-02T08:23:24;99275.06;;;8.96;75.74
53011;BME280;42803;55.762;38.084;2022-09-02T08:26:04;99277.38;;;9.03;76.94
53011;BME280;42803;55.762;38.084;2022-09-02T08:28:35;99274.06;;;9.16;76.87
53011;BME280;42803;55.762;38.084;2022-09-02T08:31:05;99269.88;;;9.74;75.94
53011;BME280;42803;55.762;38.084;2022-09-02T08:33:34;99269.31;;;9.78;75.36
53011;BME280;42803;55.762;38.084;2022-09-02T08:36:05;99272.47;;;9.74;75.71
53011;BME280;42803;55.762;38.084;2022-09-02T08:38:35;99273.16;;;9.49;76.13
53011;BME280;42803;55.762;38.084;2022-09-02T08:41:11;99278.81;;;9.77;77.25
53011;BME280;42803;55.762;38.084;2022-09-02T08:43:43;99280.44;;;10.11;75.98
53011;BME280;42803;55.762;38.084;2022-09-02T08:46:13;99284.44;;;10.88;73.74
53011;BME280;42803;55.762;38.084;2022-09-02T08:48:48;99283.25;;;11.08;71.12
53011;BME280;42803;55.762;38.084;2022-09-02T08:51:22;99291.91;;;11.32;70.34
53011;BME280;42803;55.762;38.084;2022-09-02T08:54:04;99296.91;;;11.29;69.46
53011;BME280;42803;55.762;38.084;2022-09-02T08:56:33;99292.66;;;10.45;70.18
53011;BME280;42803;55.762;38.084;2022-09-02T08:59:04;99289.47;;;10.61;71.43
53011;BME280;42803;55.762;38.084;2022-09-02T09:01:42;99293.66;;;11.44;70.39
53011;BME280;42803;55.762;38.084;2022-09-02T09:04:19;99291.16;;;12.21;67.06
53011;BME280;42803;55.762;38.084;2022-09-02T09:07:01;99298.41;;;12.52;64.47
53011;BME280;42803;55.762;38.084;2022-09-02T09:09:46;99299.78;;;12.20;64.65
53011;BME280;42803;55.762;38.084;2022-09-02T09:12:26;99311.09;;;11.69;65.35
53011;BME280;42803;55.762;38.084;2022-09-02T09:15:04;99299.22;;;11.24;67.88
53011;BME280;42803;55.762;38.084;2022-09-02T09:17:41;99322.81;;;10.77;70.21
53011;BME280;42803;55.762;38.084;2022-09-02T09:20:17;99318.41;;;9.95;72.54
53011;BME280;42803;55.762;38.084;2022-09-02T09:22:54;99338.19;;;9.26;75.25
53011;BME280;42803;55.762;38.084;2022-09-02T09:25:25;99360.63;;;8.92;78.00
53011;BME280;42803;55.762;38.084;2022-09-02T09:27:56;99373.38;;;8.46;81.35
53011;BME280;42803;55.762;38.084;2022-09-02T09:30:27;99368.44;;;8.29;84.16
53011;BME280;42803;55.762;38.084;2022-09-02T09:32:58;99371.81;;;8.28;85.88
53011;BME280;42803;55.762;38.084;2022-09-02T09:35:46;99377.53;;;8.34;87.20
53011;BME280;42803;55.762;38.084;2022-09-02T09:38:16;99378.34;;;8.43;87.20
53011;BME280;42803;55.762;38.084;2022-09-02T09:41:24;99392.34;;;8.56;87.39
53011;BME280;42803;55.762;38.084;2022-09-02T09:43:55;99397.13;;;8.71;87.11
53011;BME280;42803;55.762;38.084;2022-09-02T09:46:27;99399.56;;;8.90;86.87
53011;BME280;42803;55.762;38.084;2022-09-02T09:48:59;99399.63;;;9.02;86.92
53011;BME280;42803;55.762;38.084;2022-09-02T09:51:28;99400.81;;;8.95;87.50
53011;BME280;42803;55.762;38.084;2022-09-02T09:54:17;99394.63;;;9.15;88.02
53011;BME280;42803;55.762;38.084;2022-09-02T09:56:46;99393.69;;;9.69;87.50
53011;BME280;42803;55.762;38.084;2022-09-02T09:59:35;99382.81;;;10.30;86.11
53011;BME280;42803;55.762;38.084;2022-09-02T10:02:12;99380.59;;;10.93;83.78
53011;BME280;42803;55.762;38.084;2022-09-02T10:04:47;99374.03;;;11.84;82.21
53011;BME280;42803;55.762;38.084;2022-09-02T10:07:35;99377.56;;;12.61;79.03
53011;BME280;42803;55.762;38.084;2022-09-02T10:10:17;99379.09;;;12.19;76.81
53011;BME280;42803;55.762;38.084;2022-09-02T10:12:49;99372.38;;;12.36;76.87
53011;BME280;42803;55.762;38.084;2022-09-02T10:15:24;99375.47;;;11.92;75.94
53011;BME280;42803;55.762;38.084;2022-09-02T10:18:04;99386.03;;;11.08;77.92
53011;BME280;42803;55.762;38.084;2022-09-02T10:20:43;99428.28;;;10.00;81.57
53011;BME280;42803;55.762;38.084;2022-09-02T10:23:45;99429.78;;;8.68;84.41
53011;BME280;42803;55.762;38.084;2022-09-02T10:26:24;99419.25;;;8.15;86.72
53011;BME280;42803;55.762;38.084;2022-09-02T10:29:19;99430.03;;;7.89;88.87
53011;BME280;42803;55.762;38.084;2022-09-02T10:32:11;99435.47;;;7.72;90.36
53011;BME280;42803;55.762;38.084;2022-09-02T10:34:50;99441.94;;;7.67;91.30
53011;BME280;42803;55.762;38.084;2022-09-02T10:37:30;99452.25;;;7.75;91.83
53011;BME280;42803;55.762;38.084;2022-09-02T10:40:08;99443.03;;;7.89;92.11
53011;BME280;42803;55.762;38.084;2022-09-02T10:42:44;99435.56;;;8.43;92.05
53011;BME280;42803;55.762;38.084;2022-09-02T10:45:23;99442.78;;;8.78;91.50
53011;BME280;42803;55.762;38.084;2022-09-02T10:47:59;99429.97;;;9.01;91.12
53011;BME280;42803;55.762;38.084;2022-09-02T10:50:39;99437.63;;;9.10;90.80
53011;BME280;42803;55.762;38.084;2022-09-02T10:53:32;99435.50;;;9.48;90.32
53011;BME280;42803;55.762;38.084;2022-09-02T10:56:05;99434.31;;;10.11;88.68
53011;BME280;42803;55.762;38.084;2022-09-02T10:58:40;99435.69;;;10.39;87.03
53011;BME280;42803;55.762;38.084;2022-09-02T11:01:17;99432.47;;;10.77;86.05
53011;BME280;42803;55.762;38.084;2022-09-02T11:03:57;99424.88;;;10.80;84.69
53011;BME280;42803;55.762;38.084;2022-09-02T11:06:34;99414.53;;;10.93;84.08
53011;BME280;42803;55.762;38.084;2022-09-02T11:09:30;99421.78;;;11.21;84.18
53011;BME280;42803;55.762;38.084;2022-09-02T11:12:06;99425.06;;;11.42;82.28
53011;BME280;42803;55.762;38.084;2022-09-02T11:14:47;99428.50;;;11.06;78.17
53011;BME280;42803;55.762;38.084;2022-09-02T11:17:22;99439.00;;;10.48;79.61
53011;BME280;42803;55.762;38.084;2022-09-02T11:19:58;99472.56;;;9.88;81.87
53011;BME280;42803;55.762;38.084;2022-09-02T11:22:36;99510.19;;;8.54;84.38
53011;BME280;42803;55.762;38.084;2022-09-02T11:25:13;99493.16;;;7.39;87.25
53011;BME280;42803;55.762;38.084;2022-09-02T11:27:47;99493.41;;;7.13;89.73
53011;BME280;42803;55.762;38.084;2022-09-02T11:30:24;99503.06;;;7.24;90.45
53011;BME280;42803;55.762;38.084;2022-09-02T11:32:58;99502.47;;;7.55;90.92
53011;BME280;42803;55.762;38.084;2022-09-02T11:35:34;99505.63;;;7.82;91.55
53011;BME280;42803;55.762;38.084;2022-09-02T11:38:21;99497.94;;;8.33;91.85
53011;BME280;42803;55.762;38.084;2022-09-02T11:41:25;99503.66;;;8.90;89.89
53011;BME280;42803;55.762;38.084;2022-09-02T11:47:39;99487.59;;;9.48;87.25
53011;BME280;42803;55.762;38.084;2022-09-02T11:50:25;99490.06;;;9.15;88.08
53011;BME280;42803;55.762;38.084;2022-09-02T11:53:19;99520.72;;;8.97;89.13
53011;BME280;42803;55.762;38.084;2022-09-02T11:55:57;99516.69;;;8.80;89.70
53011;BME280;42803;55.762;38.084;2022-09-02T11:58:34;99516.94;;;8.83;90.27
53011;BME280;42803;55.762;38.084;2022-09-02T12:01:18;99513.75;;;9.18;89.85
53011;BME280;42803;55.762;38.084;2022-09-02T12:03:55;99502.63;;;9.73;89.53
53011;BME280;42803;55.762;38.084;2022-09-02T12:07:24;99496.81;;;10.31;88.19
53011;BME280;42803;55.762;38.084;2022-09-02T12:10:00;99501.25;;;10.32;87.22
53011;BME280;42803;55.762;38.084;2022-09-02T12:13:03;99504.97;;;10.14;87.01
53011;BME280;42803;55.762;38.084;2022-09-02T12:15:45;99502.81;;;10.30;86.38
53011;BME280;42803;55.762;38.084;2022-09-02T12:18:27;99502.38;;;9.92;87.06
53011;BME280;42803;55.762;38.084;2022-09-02T12:21:11;99507.38;;;9.57;87.51
53011;BME280;42803;55.762;38.084;2022-09-02T12:24:10;99498.69;;;10.00;87.73
53011;BME280;42803;55.762;38.084;2022-09-02T12:27:05;99508.88;;;10.19;87.60
53011;BME280;42803;55.762;38.084;2022-09-02T12:29:34;99505.22;;;10.17;85.64
53011;BME280;42803;55.762;38.084;2022-09-02T12:32:07;99494.97;;;10.30;84.00
53011;BME280;42803;55.762;38.084;2022-09-02T12:34:58;99514.53;;;10.35;85.14
53011;BME280;42803;55.762;38.084;2022-09-02T12:37:54;99518.03;;;10.36;84.80
53011;BME280;42803;55.762;38.084;2022-09-02T12:40:28;99520.34;;;10.43;84.70
53011;BME280;42803;55.762;38.084;2022-09-02T12:43:04;99520.88;;;10.17;84.34
53011;BME280;42803;55.762;38.084;2022-09-02T12:45:38;99551.53;;;9.87;85.38
53011;BME280;42803;55.762;38.084;2022-09-02T12:48:12;99543.41;;;9.30;86.77
53011;BME280;42803;55.762;38.084;2022-09-02T12:50:53;99550.63;;;9.12;88.29
53011;BME280;42803;55.762;38.084;2022-09-02T12:53:31;99555.47;;;8.87;89.66
53011;BME280;42803;55.762;38.084;2022-09-02T12:56:03;99550.78;;;8.93;90.48
53011;BME280;42803;55.762;38.084;2022-09-02T12:58:44;99551.28;;;8.99;89.91
53011;BME280;42803;55.762;38.084;2022-09-02T13:01:17;99556.59;;;9.32;89.71
53011;BME280;42803;55.762;38.084;2022-09-02T13:04:05;99546.28;;;9.65;88.71
53011;BME280;42803;55.762;38.084;2022-09-02T13:16:12;99538.63;;;10.88;82.65
53011;BME280;42803;55.762;38.084;2022-09-02T13:22:23;99546.63;;;10.34;81.11
53011;BME280;42803;55.762;38.084;2022-09-02T13:25:40;99547.97;;;10.63;81.07
53011;BME280;42803;55.762;38.084;2022-09-02T13:28:48;99560.94;;;10.61;80.24
53011;BME280;42803;55.762;38.084;2022-09-02T13:31:24;99564.63;;;10.87;80.42
53011;BME280;42803;55.762;38.084;2022-09-02T13:33:58;99558.84;;;11.03;77.46
53011;BME280;42803;55.762;38.084;2022-09-02T13:36:35;99576.16;;;11.12;78.30
53011;BME280;42803;55.762;38.084;2022-09-02T13:39:14;99567.22;;;10.87;78.32
53011;BME280;42803;55.762;38.084;2022-09-02T13:41:45;99575.44;;;10.91;79.01
53011;BME280;42803;55.762;38.084;2022-09-02T13:44:20;99578.97;;;10.92;79.43
53011;BME280;42803;55.762;38.084;2022-09-02T13:46:53;99582.25;;;11.01;78.07
53011;BME280;42803;55.762;38.084;2022-09-02T13:49:24;99582.00;;;10.98;77.31
53011;BME280;42803;55.762;38.084;2022-09-02T13:51:55;99575.66;;;11.06;78.24
53011;BME280;42803;55.762;38.084;2022-09-02T13:54:31;99585.88;;;11.49;77.95